Hixson, Tennessee
Current Conditions -  °F | °C
As of 10:53 AM on Saturday 25 Oct 2014 (Local Time) from KCHA Reporting Station
Clear Clear  
Wind Chill: 60°   Ceiling: Unl
Heat Index: 60°   Visibility: 10mi
Dew Point: 48°   Wind: 0mph
Humidity: 64%   Direction: NA
Pressure: 30.12"   Gusts: NA
Location:  35.14°N, 85.23°W
Report Text: KCHA 251453Z 00000KT 10SM CLR 16/09 A3012 RMK AO2 SLP196 T01560089 50002
Loading
Personal Weather Stations






























Interactive Weather Map
Tropical Storm Tracking
New forecast layout! Learn more

10-Day Weather Forecast

Advertisements
Track Severe Weather on mobile